sensor_id;sensor_type;location;lat;lon;timestamp;P1;durP1;ratioP1;P2;durP2;ratioP2
7501;SDS011;3792;47.740;7.606;2024-01-10T00:02:17;34.80;;;19.47;;
7501;SDS011;3792;47.740;7.606;2024-01-10T00:04:44;31.80;;;18.27;;
7501;SDS011;3792;47.740;7.606;2024-01-10T00:07:11;32.87;;;19.50;;
7501;SDS011;3792;47.740;7.606;2024-01-10T00:09:38;38.33;;;20.00;;
7501;SDS011;3792;47.740;7.606;2024-01-10T00:12:07;37.30;;;21.07;;
7501;SDS011;3792;47.740;7.606;2024-01-10T00:14:34;37.23;;;21.73;;
7501;SDS011;3792;47.740;7.606;2024-01-10T00:17:01;35.77;;;21.23;;
7501;SDS011;3792;47.740;7.606;2024-01-10T00:19:28;38.87;;;21.30;;
7501;SDS011;3792;47.740;7.606;2024-01-10T00:21:55;37.53;;;20.30;;
7501;SDS011;3792;47.740;7.606;2024-01-10T00:24:22;34.03;;;18.47;;
7501;SDS011;3792;47.740;7.606;2024-01-10T00:26:49;31.13;;;18.80;;
7501;SDS011;3792;47.740;7.606;2024-01-10T00:29:17;32.80;;;18.80;;
7501;SDS011;3792;47.740;7.606;2024-01-10T00:31:44;37.77;;;20.87;;
7501;SDS011;3792;47.740;7.606;2024-01-10T00:34:11;36.13;;;19.70;;
7501;SDS011;3792;47.740;7.606;2024-01-10T00:36:38;34.23;;;19.83;;
7501;SDS011;3792;47.740;7.606;2024-01-10T00:39:05;36.10;;;20.17;;
7501;SDS011;3792;47.740;7.606;2024-01-10T00:41:32;33.77;;;19.70;;
7501;SDS011;3792;47.740;7.606;2024-01-10T00:43:59;34.70;;;20.40;;
7501;SDS011;3792;47.740;7.606;2024-01-10T00:46:28;35.07;;;19.87;;
7501;SDS011;3792;47.740;7.606;2024-01-10T00:48:55;36.17;;;20.90;;
7501;SDS011;3792;47.740;7.606;2024-01-10T00:51:22;34.33;;;19.30;;
7501;SDS011;3792;47.740;7.606;2024-01-10T00:53:49;38.63;;;21.00;;
7501;SDS011;3792;47.740;7.606;2024-01-10T00:56:16;34.93;;;20.93;;
7501;SDS011;3792;47.740;7.606;2024-01-10T00:58:43;36.47;;;21.07;;
7501;SDS011;3792;47.740;7.606;2024-01-10T01:01:10;35.07;;;20.77;;
7501;SDS011;3792;47.740;7.606;2024-01-10T01:03:38;35.93;;;20.73;;
7501;SDS011;3792;47.740;7.606;2024-01-10T01:06:06;34.57;;;20.93;;
7501;SDS011;3792;47.740;7.606;2024-01-10T01:08:33;33.90;;;20.47;;
7501;SDS011;3792;47.740;7.606;2024-01-10T01:11:00;38.03;;;21.40;;
7501;SDS011;3792;47.740;7.606;2024-01-10T01:13:27;41.43;;;22.77;;
7501;SDS011;3792;47.740;7.606;2024-01-10T01:15:54;38.00;;;21.73;;
7501;SDS011;3792;47.740;7.606;2024-01-10T01:18:21;38.57;;;20.27;;
7501;SDS011;3792;47.740;7.606;2024-01-10T01:20:49;39.00;;;22.30;;
7501;SDS011;3792;47.740;7.606;2024-01-10T01:23:16;40.30;;;21.80;;
7501;SDS011;3792;47.740;7.606;2024-01-10T01:25:43;40.37;;;21.40;;
7501;SDS011;3792;47.740;7.606;2024-01-10T01:28:10;36.87;;;21.07;;
7501;SDS011;3792;47.740;7.606;2024-01-10T01:30:37;38.03;;;21.23;;
7501;SDS011;3792;47.740;7.606;2024-01-10T01:33:05;39.00;;;20.73;;
7501;SDS011;3792;47.740;7.606;2024-01-10T01:35:32;37.63;;;21.83;;
7501;SDS011;3792;47.740;7.606;2024-01-10T01:38:00;39.73;;;22.23;;
7501;SDS011;3792;47.740;7.606;2024-01-10T01:40:27;43.60;;;22.17;;
7501;SDS011;3792;47.740;7.606;2024-01-10T01:42:54;39.23;;;21.87;;
7501;SDS011;3792;47.740;7.606;2024-01-10T01:45:21;42.20;;;22.43;;
7501;SDS011;3792;47.740;7.606;2024-01-10T01:47:48;43.53;;;23.20;;
7501;SDS011;3792;47.740;7.606;2024-01-10T01:50:16;45.13;;;21.50;;
7501;SDS011;3792;47.740;7.606;2024-01-10T01:52:44;41.87;;;22.07;;
7501;SDS011;3792;47.740;7.606;2024-01-10T01:55:12;39.90;;;20.83;;
7501;SDS011;3792;47.740;7.606;2024-01-10T01:57:40;41.13;;;21.13;;
7501;SDS011;3792;47.740;7.606;2024-01-10T02:00:07;43.10;;;21.23;;
7501;SDS011;3792;47.740;7.606;2024-01-10T02:02:35;42.47;;;22.80;;
7501;SDS011;3792;47.740;7.606;2024-01-10T02:05:03;42.43;;;23.77;;
7501;SDS011;3792;47.740;7.606;2024-01-10T02:07:30;43.53;;;23.53;;
7501;SDS011;3792;47.740;7.606;2024-01-10T02:09:57;43.43;;;23.30;;
7501;SDS011;3792;47.740;7.606;2024-01-10T02:12:26;43.00;;;23.53;;
7501;SDS011;3792;47.740;7.606;2024-01-10T02:14:53;40.00;;;21.93;;
7501;SDS011;3792;47.740;7.606;2024-01-10T02:17:20;43.03;;;22.53;;
7501;SDS011;3792;47.740;7.606;2024-01-10T02:19:47;41.17;;;22.43;;
7501;SDS011;3792;47.740;7.606;2024-01-10T02:22:14;37.40;;;20.87;;
7501;SDS011;3792;47.740;7.606;2024-01-10T02:24:41;40.33;;;20.80;;
7501;SDS011;3792;47.740;7.606;2024-01-10T02:27:09;39.97;;;21.20;;
7501;SDS011;3792;47.740;7.606;2024-01-10T02:29:37;41.57;;;23.20;;
7501;SDS011;3792;47.740;7.606;2024-01-10T02:32:04;38.23;;;20.77;;
7501;SDS011;3792;47.740;7.606;2024-01-10T02:34:32;36.17;;;20.43;;
7501;SDS011;3792;47.740;7.606;2024-01-10T02:36:59;43.93;;;21.87;;
7501;SDS011;3792;47.740;7.606;2024-01-10T02:39:26;38.97;;;21.40;;
7501;SDS011;3792;47.740;7.606;2024-01-10T02:41:53;42.27;;;22.87;;
7501;SDS011;3792;47.740;7.606;2024-01-10T02:44:21;41.87;;;21.90;;
7501;SDS011;3792;47.740;7.606;2024-01-10T02:46:49;41.63;;;23.53;;
7501;SDS011;3792;47.740;7.606;2024-01-10T02:49:16;39.70;;;21.23;;
7501;SDS011;3792;47.740;7.606;2024-01-10T02:51:43;41.33;;;22.70;;
7501;SDS011;3792;47.740;7.606;2024-01-10T02:54:10;42.03;;;22.93;;
7501;SDS011;3792;47.740;7.606;2024-01-10T02:56:37;45.03;;;23.10;;
7501;SDS011;3792;47.740;7.606;2024-01-10T02:59:04;45.47;;;23.97;;
7501;SDS011;3792;47.740;7.606;2024-01-10T03:01:33;45.63;;;22.57;;
7501;SDS011;3792;47.740;7.606;2024-01-10T03:04:00;43.87;;;21.73;;
7501;SDS011;3792;47.740;7.606;2024-01-10T03:06:27;48.70;;;24.37;;
7501;SDS011;3792;47.740;7.606;2024-01-10T03:08:54;48.00;;;24.10;;
7501;SDS011;3792;47.740;7.606;2024-01-10T03:11:21;46.57;;;23.23;;
7501;SDS011;3792;47.740;7.606;2024-01-10T03:13:49;48.30;;;22.60;;
7501;SDS011;3792;47.740;7.606;2024-01-10T03:16:18;39.43;;;21.30;;
7501;SDS011;3792;47.740;7.606;2024-01-10T03:18:47;44.37;;;23.60;;
7501;SDS011;3792;47.740;7.606;2024-01-10T03:21:14;45.87;;;23.47;;
7501;SDS011;3792;47.740;7.606;2024-01-10T03:23:42;46.33;;;22.80;;
7501;SDS011;3792;47.740;7.606;2024-01-10T03:26:09;43.00;;;22.93;;
7501;SDS011;3792;47.740;7.606;2024-01-10T03:28:36;44.63;;;22.60;;
7501;SDS011;3792;47.740;7.606;2024-01-10T03:31:03;43.40;;;22.37;;
7501;SDS011;3792;47.740;7.606;2024-01-10T03:33:30;43.03;;;22.70;;
7501;SDS011;3792;47.740;7.606;2024-01-10T03:35:59;42.10;;;23.20;;
7501;SDS011;3792;47.740;7.606;2024-01-10T03:38:26;43.07;;;21.97;;
7501;SDS011;3792;47.740;7.606;2024-01-10T03:40:53;43.70;;;22.53;;
7501;SDS011;3792;47.740;7.606;2024-01-10T03:43:20;46.67;;;21.67;;
7501;SDS011;3792;47.740;7.606;2024-01-10T03:45:47;40.67;;;21.93;;
7501;SDS011;3792;47.740;7.606;2024-01-10T03:48:14;45.77;;;22.77;;
7501;SDS011;3792;47.740;7.606;2024-01-10T03:50:41;45.77;;;24.03;;
7501;SDS011;3792;47.740;7.606;2024-01-10T03:53:09;45.57;;;23.67;;
7501;SDS011;3792;47.740;7.606;2024-01-10T03:55:36;50.30;;;24.17;;
7501;SDS011;3792;47.740;7.606;2024-01-10T03:58:04;41.70;;;22.43;;
7501;SDS011;3792;47.740;7.606;2024-01-10T04:00:31;48.37;;;23.83;;
7501;SDS011;3792;47.740;7.606;2024-01-10T04:02:59;48.47;;;24.43;;
7501;SDS011;3792;47.740;7.606;2024-01-10T04:05:26;43.13;;;22.33;;
7501;SDS011;3792;47.740;7.606;2024-01-10T04:07:53;50.90;;;24.77;;
7501;SDS011;3792;47.740;7.606;2024-01-10T04:10:23;46.23;;;25.53;;
7501;SDS011;3792;47.740;7.606;2024-01-10T04:12:50;49.63;;;26.37;;
7501;SDS011;3792;47.740;7.606;2024-01-10T04:15:17;53.53;;;25.47;;
7501;SDS011;3792;47.740;7.606;2024-01-10T04:17:44;48.63;;;25.33;;
7501;SDS011;3792;47.740;7.606;2024-01-10T04:20:11;48.20;;;25.67;;
7501;SDS011;3792;47.740;7.606;2024-01-10T04:22:38;51.30;;;25.40;;
7501;SDS011;3792;47.740;7.606;2024-01-10T04:25:06;50.07;;;26.70;;
7501;SDS011;3792;47.740;7.606;2024-01-10T04:27:35;48.03;;;24.47;;
7501;SDS011;3792;47.740;7.606;2024-01-10T04:30:02;47.80;;;24.03;;
7501;SDS011;3792;47.740;7.606;2024-01-10T04:32:30;43.27;;;22.90;;
7501;SDS011;3792;47.740;7.606;2024-01-10T04:34:57;46.07;;;22.93;;
7501;SDS011;3792;47.740;7.606;2024-01-10T04:37:24;58.87;;;29.63;;
7501;SDS011;3792;47.740;7.606;2024-01-10T04:39:51;50.00;;;25.87;;
7501;SDS011;3792;47.740;7.606;2024-01-10T04:42:18;46.53;;;23.57;;
7501;SDS011;3792;47.740;7.606;2024-01-10T04:44:47;44.43;;;24.37;;
7501;SDS011;3792;47.740;7.606;2024-01-10T04:47:14;47.73;;;24.33;;
7501;SDS011;3792;47.740;7.606;2024-01-10T04:49:42;48.70;;;23.97;;
7501;SDS011;3792;47.740;7.606;2024-01-10T04:52:09;46.43;;;25.03;;
7501;SDS011;3792;47.740;7.606;2024-01-10T04:54:36;43.30;;;23.17;;
7501;SDS011;3792;47.740;7.606;2024-01-10T04:57:03;46.07;;;23.27;;
7501;SDS011;3792;47.740;7.606;2024-01-10T04:59:30;47.27;;;22.67;;
7501;SDS011;3792;47.740;7.606;2024-01-10T05:01:59;47.40;;;24.27;;
7501;SDS011;3792;47.740;7.606;2024-01-10T05:04:26;51.40;;;24.73;;
7501;SDS011;3792;47.740;7.606;2024-01-10T05:06:53;42.63;;;23.00;;
7501;SDS011;3792;47.740;7.606;2024-01-10T05:09:20;46.73;;;23.70;;
7501;SDS011;3792;47.740;7.606;2024-01-10T05:11:47;46.97;;;24.87;;
7501;SDS011;3792;47.740;7.606;2024-01-10T05:14:16;44.13;;;21.87;;
7501;SDS011;3792;47.740;7.606;2024-01-10T05:16:44;44.17;;;24.43;;
7501;SDS011;3792;47.740;7.606;2024-01-10T05:19:14;50.57;;;25.30;;
7501;SDS011;3792;47.740;7.606;2024-01-10T05:21:41;51.37;;;25.30;;
7501;SDS011;3792;47.740;7.606;2024-01-10T05:24:08;45.37;;;23.37;;
7501;SDS011;3792;47.740;7.606;2024-01-10T05:26:35;48.37;;;24.60;;
7501;SDS011;3792;47.740;7.606;2024-01-10T05:29:02;48.13;;;25.93;;
7501;SDS011;3792;47.740;7.606;2024-01-10T05:31:29;45.80;;;23.83;;
7501;SDS011;3792;47.740;7.606;2024-01-10T05:33:56;44.97;;;22.67;;
7501;SDS011;3792;47.740;7.606;2024-01-10T05:36:25;44.57;;;23.33;;
7501;SDS011;3792;47.740;7.606;2024-01-10T05:38:52;50.37;;;24.43;;
7501;SDS011;3792;47.740;7.606;2024-01-10T05:41:19;47.87;;;24.00;;
7501;SDS011;3792;47.740;7.606;2024-01-10T05:43:46;70.23;;;34.00;;
7501;SDS011;3792;47.740;7.606;2024-01-10T05:46:13;51.43;;;27.63;;
7501;SDS011;3792;47.740;7.606;2024-01-10T05:48:41;53.00;;;28.00;;
7501;SDS011;3792;47.740;7.606;2024-01-10T05:51:08;53.07;;;27.17;;
7501;SDS011;3792;47.740;7.606;2024-01-10T05:53:36;51.43;;;25.87;;
7501;SDS011;3792;47.740;7.606;2024-01-10T05:56:05;46.57;;;24.23;;
7501;SDS011;3792;47.740;7.606;2024-01-10T05:58:32;44.57;;;23.03;;
7501;SDS011;3792;47.740;7.606;2024-01-10T06:00:59;45.17;;;23.67;;
7501;SDS011;3792;47.740;7.606;2024-01-10T06:03:26;47.37;;;24.03;;
7501;SDS011;3792;47.740;7.606;2024-01-10T06:05:53;54.57;;;24.50;;
7501;SDS011;3792;47.740;7.606;2024-01-10T06:08:20;46.47;;;24.73;;
7501;SDS011;3792;47.740;7.606;2024-01-10T06:10:52;49.23;;;23.03;;
7501;SDS011;3792;47.740;7.606;2024-01-10T06:13:19;44.40;;;23.83;;
7501;SDS011;3792;47.740;7.606;2024-01-10T06:15:46;41.70;;;22.30;;
7501;SDS011;3792;47.740;7.606;2024-01-10T06:18:13;47.17;;;24.63;;
7501;SDS011;3792;47.740;7.606;2024-01-10T06:20:40;49.53;;;24.07;;
7501;SDS011;3792;47.740;7.606;2024-01-10T06:23:07;51.43;;;24.27;;
7501;SDS011;3792;47.740;7.606;2024-01-10T06:25:34;54.17;;;25.23;;
7501;SDS011;3792;47.740;7.606;2024-01-10T06:28:02;47.17;;;25.17;;
7501;SDS011;3792;47.740;7.606;2024-01-10T06:30:30;53.17;;;28.17;;
7501;SDS011;3792;47.740;7.606;2024-01-10T06:32:57;64.70;;;31.70;;
7501;SDS011;3792;47.740;7.606;2024-01-10T06:35:24;60.00;;;28.90;;
7501;SDS011;3792;47.740;7.606;2024-01-10T06:37:51;49.43;;;25.63;;
7501;SDS011;3792;47.740;7.606;2024-01-10T06:40:18;47.90;;;25.90;;
7501;SDS011;3792;47.740;7.606;2024-01-10T06:42:46;50.77;;;25.93;;
7501;SDS011;3792;47.740;7.606;2024-01-10T06:45:15;51.17;;;25.47;;
7501;SDS011;3792;47.740;7.606;2024-01-10T06:47:42;46.23;;;25.20;;
7501;SDS011;3792;47.740;7.606;2024-01-10T06:50:09;49.33;;;24.97;;
7501;SDS011;3792;47.740;7.606;2024-01-10T06:52:36;50.43;;;25.27;;
7501;SDS011;3792;47.740;7.606;2024-01-10T06:55:04;46.87;;;24.30;;
7501;SDS011;3792;47.740;7.606;2024-01-10T06:57:31;47.67;;;24.47;;
7501;SDS011;3792;47.740;7.606;2024-01-10T06:59:58;48.67;;;24.80;;
7501;SDS011;3792;47.740;7.606;2024-01-10T07:02:28;47.13;;;22.60;;
7501;SDS011;3792;47.740;7.606;2024-01-10T07:04:57;52.60;;;25.23;;
7501;SDS011;3792;47.740;7.606;2024-01-10T07:07:24;46.47;;;24.93;;
7501;SDS011;3792;47.740;7.606;2024-01-10T07:09:51;55.97;;;27.60;;
7501;SDS011;3792;47.740;7.606;2024-01-10T07:12:18;59.03;;;30.43;;
7501;SDS011;3792;47.740;7.606;2024-01-10T07:14:45;53.23;;;28.60;;
7501;SDS011;3792;47.740;7.606;2024-01-10T07:17:12;51.90;;;28.33;;
7501;SDS011;3792;47.740;7.606;2024-01-10T07:19:41;57.87;;;28.07;;
7501;SDS011;3792;47.740;7.606;2024-01-10T07:22:08;52.13;;;26.77;;
7501;SDS011;3792;47.740;7.606;2024-01-10T07:24:36;55.73;;;27.77;;
7501;SDS011;3792;47.740;7.606;2024-01-10T07:27:03;48.90;;;26.20;;
7501;SDS011;3792;47.740;7.606;2024-01-10T07:29:31;48.03;;;26.60;;
7501;SDS011;3792;47.740;7.606;2024-01-10T07:31:58;55.30;;;26.67;;
7501;SDS011;3792;47.740;7.606;2024-01-10T07:34:25;55.37;;;27.07;;
7501;SDS011;3792;47.740;7.606;2024-01-10T07:36:53;55.00;;;28.00;;
7501;SDS011;3792;47.740;7.606;2024-01-10T07:39:20;49.53;;;24.77;;
7501;SDS011;3792;47.740;7.606;2024-01-10T07:41:47;52.10;;;28.13;;
7501;SDS011;3792;47.740;7.606;2024-01-10T07:44:16;52.50;;;27.00;;
7501;SDS011;3792;47.740;7.606;2024-01-10T07:46:43;49.47;;;25.17;;
7501;SDS011;3792;47.740;7.606;2024-01-10T07:49:10;51.90;;;24.93;;
7501;SDS011;3792;47.740;7.606;2024-01-10T07:51:37;49.43;;;24.87;;
7501;SDS011;3792;47.740;7.606;2024-01-10T07:54:05;46.37;;;24.23;;
7501;SDS011;3792;47.740;7.606;2024-01-10T07:56:32;56.30;;;28.53;;
7501;SDS011;3792;47.740;7.606;2024-01-10T07:58:59;47.93;;;25.70;;
7501;SDS011;3792;47.740;7.606;2024-01-10T08:01:26;54.67;;;28.37;;
7501;SDS011;3792;47.740;7.606;2024-01-10T08:03:53;52.03;;;27.47;;
7501;SDS011;3792;47.740;7.606;2024-01-10T08:06:20;57.53;;;29.57;;
7501;SDS011;3792;47.740;7.606;2024-01-10T08:08:47;51.17;;;26.33;;
7501;SDS011;3792;47.740;7.606;2024-01-10T08:11:16;49.63;;;25.10;;
7501;SDS011;3792;47.740;7.606;2024-01-10T08:13:43;79.97;;;38.87;;
7501;SDS011;3792;47.740;7.606;2024-01-10T08:16:10;58.90;;;30.93;;
7501;SDS011;3792;47.740;7.606;2024-01-10T08:18:37;54.70;;;29.83;;
7501;SDS011;3792;47.740;7.606;2024-01-10T08:21:04;74.97;;;33.67;;
7501;SDS011;3792;47.740;7.606;2024-01-10T08:23:31;100.47;;;43.97;;
7501;SDS011;3792;47.740;7.606;2024-01-10T08:25:58;95.57;;;44.27;;
7501;SDS011;3792;47.740;7.606;2024-01-10T08:28:26;125.97;;;57.07;;
7501;SDS011;3792;47.740;7.606;2024-01-10T08:30:53;104.03;;;45.33;;
7501;SDS011;3792;47.740;7.606;2024-01-10T08:33:20;73.43;;;34.60;;
7501;SDS011;3792;47.740;7.606;2024-01-10T08:35:48;63.30;;;30.67;;
7501;SDS011;3792;47.740;7.606;2024-01-10T08:38:15;67.53;;;31.40;;
7501;SDS011;3792;47.740;7.606;2024-01-10T08:40:42;62.03;;;30.57;;
7501;SDS011;3792;47.740;7.606;2024-01-10T08:43:09;59.60;;;30.57;;
7501;SDS011;3792;47.740;7.606;2024-01-10T08:45:37;60.27;;;28.93;;
7501;SDS011;3792;47.740;7.606;2024-01-10T08:48:04;61.37;;;26.50;;
7501;SDS011;3792;47.740;7.606;2024-01-10T08:50:32;50.67;;;24.97;;
7501;SDS011;3792;47.740;7.606;2024-01-10T08:53:00;56.27;;;27.33;;
7501;SDS011;3792;47.740;7.606;2024-01-10T08:55:31;55.87;;;26.80;;
7501;SDS011;3792;47.740;7.606;2024-01-10T08:57:59;60.07;;;27.77;;
7501;SDS011;3792;47.740;7.606;2024-01-10T09:00:26;53.43;;;26.93;;
7501;SDS011;3792;47.740;7.606;2024-01-10T09:02:55;53.53;;;26.53;;
7501;SDS011;3792;47.740;7.606;2024-01-10T09:05:22;56.13;;;27.10;;
7501;SDS011;3792;47.740;7.606;2024-01-10T09:07:49;50.33;;;25.60;;
7501;SDS011;3792;47.740;7.606;2024-01-10T09:10:18;54.20;;;28.03;;
7501;SDS011;3792;47.740;7.606;2024-01-10T09:12:46;58.33;;;28.73;;
7501;SDS011;3792;47.740;7.606;2024-01-10T09:15:13;54.00;;;26.43;;
7501;SDS011;3792;47.740;7.606;2024-01-10T09:17:41;51.20;;;26.20;;
7501;SDS011;3792;47.740;7.606;2024-01-10T09:20:10;59.63;;;30.13;;
7501;SDS011;3792;47.740;7.606;2024-01-10T09:22:37;53.50;;;25.50;;
7501;SDS011;3792;47.740;7.606;2024-01-10T09:25:05;55.83;;;28.13;;
7501;SDS011;3792;47.740;7.606;2024-01-10T09:27:33;50.43;;;26.13;;
7501;SDS011;3792;47.740;7.606;2024-01-10T09:30:01;49.43;;;27.03;;
7501;SDS011;3792;47.740;7.606;2024-01-10T09:32:31;53.30;;;26.83;;
7501;SDS011;3792;47.740;7.606;2024-01-10T09:34:58;48.67;;;24.60;;
7501;SDS011;3792;47.740;7.606;2024-01-10T09:37:27;53.53;;;26.87;;
7501;SDS011;3792;47.740;7.606;2024-01-10T09:39:55;58.27;;;26.03;;
7501;SDS011;3792;47.740;7.606;2024-01-10T09:42:22;50.37;;;25.60;;
7501;SDS011;3792;47.740;7.606;2024-01-10T09:44:50;50.97;;;26.00;;
7501;SDS011;3792;47.740;7.606;2024-01-10T09:47:18;56.60;;;27.13;;
7501;SDS011;3792;47.740;7.606;2024-01-10T09:49:46;53.73;;;27.20;;
7501;SDS011;3792;47.740;7.606;2024-01-10T09:52:17;58.13;;;28.60;;
7501;SDS011;3792;47.740;7.606;2024-01-10T09:54:52;60.90;;;29.43;;
7501;SDS011;3792;47.740;7.606;2024-01-10T09:57:21;58.93;;;29.57;;
7501;SDS011;3792;47.740;7.606;2024-01-10T09:59:49;57.30;;;27.33;;
7501;SDS011;3792;47.740;7.606;2024-01-10T10:02:17;60.53;;;28.27;;
7501;SDS011;3792;47.740;7.606;2024-01-10T10:04:47;52.97;;;26.67;;
7501;SDS011;3792;47.740;7.606;2024-01-10T10:07:21;51.47;;;25.97;;
7501;SDS011;3792;47.740;7.606;2024-01-10T10:09:48;59.63;;;27.63;;
7501;SDS011;3792;47.740;7.606;2024-01-10T10:12:16;55.30;;;26.97;;
7501;SDS011;3792;47.740;7.606;2024-01-10T10:14:43;54.23;;;27.13;;
7501;SDS011;3792;47.740;7.606;2024-01-10T10:17:14;51.13;;;28.27;;
7501;SDS011;3792;47.740;7.606;2024-01-10T10:19:41;64.33;;;29.43;;
7501;SDS011;3792;47.740;7.606;2024-01-10T10:22:09;62.30;;;29.37;;
7501;SDS011;3792;47.740;7.606;2024-01-10T10:24:36;63.73;;;30.80;;
7501;SDS011;3792;47.740;7.606;2024-01-10T10:27:07;63.23;;;31.40;;
7501;SDS011;3792;47.740;7.606;2024-01-10T10:29:37;66.97;;;31.67;;
7501;SDS011;3792;47.740;7.606;2024-01-10T10:32:05;65.33;;;32.27;;
7501;SDS011;3792;47.740;7.606;2024-01-10T10:34:33;56.13;;;28.47;;
7501;SDS011;3792;47.740;7.606;2024-01-10T10:37:00;50.40;;;26.70;;
7501;SDS011;3792;47.740;7.606;2024-01-10T10:39:28;55.03;;;27.77;;
7501;SDS011;3792;47.740;7.606;2024-01-10T10:41:55;52.03;;;27.37;;
7501;SDS011;3792;47.740;7.606;2024-01-10T10:44:24;61.83;;;30.50;;
7501;SDS011;3792;47.740;7.606;2024-01-10T10:46:53;58.90;;;28.43;;
7501;SDS011;3792;47.740;7.606;2024-01-10T10:49:24;57.37;;;29.73;;
7501;SDS011;3792;47.740;7.606;2024-01-10T10:51:57;57.97;;;30.17;;
7501;SDS011;3792;47.740;7.606;2024-01-10T10:54:26;58.20;;;29.07;;
7501;SDS011;3792;47.740;7.606;2024-01-10T10:56:57;66.30;;;34.20;;
7501;SDS011;3792;47.740;7.606;2024-01-10T10:59:27;58.10;;;29.40;;
7501;SDS011;3792;47.740;7.606;2024-01-10T11:02:00;55.47;;;28.13;;
7501;SDS011;3792;47.740;7.606;2024-01-10T11:04:27;54.20;;;28.57;;
7501;SDS011;3792;47.740;7.606;2024-01-10T11:06:55;56.80;;;28.20;;
7501;SDS011;3792;47.740;7.606;2024-01-10T11:09:22;52.03;;;27.43;;
7501;SDS011;3792;47.740;7.606;2024-01-10T11:11:56;51.30;;;26.73;;
7501;SDS011;3792;47.740;7.606;2024-01-10T11:14:39;42.73;;;23.53;;
7501;SDS011;3792;47.740;7.606;2024-01-10T11:20:21;43.20;;;23.97;;
7501;SDS011;3792;47.740;7.606;2024-01-10T11:26:09;44.73;;;24.90;;
7501;SDS011;3792;47.740;7.606;2024-01-10T11:28:38;47.97;;;27.43;;
7501;SDS011;3792;47.740;7.606;2024-01-10T11:31:06;49.90;;;27.80;;
7501;SDS011;3792;47.740;7.606;2024-01-10T11:33:35;51.33;;;29.10;;
7501;SDS011;3792;47.740;7.606;2024-01-10T11:36:07;48.80;;;28.73;;
7501;SDS011;3792;47.740;7.606;2024-01-10T11:38:42;47.10;;;27.43;;
7501;SDS011;3792;47.740;7.606;2024-01-10T11:41:10;47.30;;;27.80;;
7501;SDS011;3792;47.740;7.606;2024-01-10T11:43:38;51.50;;;27.83;;
7501;SDS011;3792;47.740;7.606;2024-01-10T11:46:05;48.63;;;28.47;;
7501;SDS011;3792;47.740;7.606;2024-01-10T11:48:33;47.43;;;28.93;;
7501;SDS011;3792;47.740;7.606;2024-01-10T11:51:04;50.40;;;27.93;;
7501;SDS011;3792;47.740;7.606;2024-01-10T11:53:38;48.80;;;28.57;;
7501;SDS011;3792;47.740;7.606;2024-01-10T11:56:10;54.27;;;31.13;;
7501;SDS011;3792;47.740;7.606;2024-01-10T11:58:55;52.83;;;28.77;;
7501;SDS011;3792;47.740;7.606;2024-01-10T12:01:29;48.27;;;29.97;;
7501;SDS011;3792;47.740;7.606;2024-01-10T12:03:58;46.83;;;28.43;;
7501;SDS011;3792;47.740;7.606;2024-01-10T12:06:26;52.20;;;29.63;;
7501;SDS011;3792;47.740;7.606;2024-01-10T12:08:53;50.37;;;28.00;;
7501;SDS011;3792;47.740;7.606;2024-01-10T12:11:20;48.13;;;27.73;;
7501;SDS011;3792;47.740;7.606;2024-01-10T12:13:47;46.17;;;28.03;;
7501;SDS011;3792;47.740;7.606;2024-01-10T12:16:15;51.53;;;29.10;;
7501;SDS011;3792;47.740;7.606;2024-01-10T12:18:42;50.23;;;28.17;;
7501;SDS011;3792;47.740;7.606;2024-01-10T12:21:11;49.77;;;28.87;;
7501;SDS011;3792;47.740;7.606;2024-01-10T12:23:38;54.53;;;29.30;;
7501;SDS011;3792;47.740;7.606;2024-01-10T12:26:07;51.90;;;28.63;;
7501;SDS011;3792;47.740;7.606;2024-01-10T12:28:38;48.97;;;26.37;;
7501;SDS011;3792;47.740;7.606;2024-01-10T12:31:05;50.90;;;26.77;;
7501;SDS011;3792;47.740;7.606;2024-01-10T12:33:33;52.23;;;28.80;;
7501;SDS011;3792;47.740;7.606;2024-01-10T12:36:07;52.17;;;29.83;;
7501;SDS011;3792;47.740;7.606;2024-01-10T12:38:37;50.50;;;27.93;;
7501;SDS011;3792;47.740;7.606;2024-01-10T12:41:05;51.27;;;28.50;;
7501;SDS011;3792;47.740;7.606;2024-01-10T12:43:34;53.07;;;29.07;;
7501;SDS011;3792;47.740;7.606;2024-01-10T12:46:05;51.20;;;26.70;;
7501;SDS011;3792;47.740;7.606;2024-01-10T12:48:32;47.00;;;27.20;;
7501;SDS011;3792;47.740;7.606;2024-01-10T12:51:01;50.70;;;29.07;;
7501;SDS011;3792;47.740;7.606;2024-01-10T12:53:31;49.47;;;30.30;;
7501;SDS011;3792;47.740;7.606;2024-01-10T12:56:01;47.40;;;26.53;;
7501;SDS011;3792;47.740;7.606;2024-01-10T12:58:28;47.33;;;27.03;;
7501;SDS011;3792;47.740;7.606;2024-01-10T13:00:55;49.70;;;27.53;;
7501;SDS011;3792;47.740;7.606;2024-01-10T13:03:22;50.40;;;29.17;;
7501;SDS011;3792;47.740;7.606;2024-01-10T13:05:50;44.90;;;26.00;;
7501;SDS011;3792;47.740;7.606;2024-01-10T13:08:17;55.27;;;29.57;;
7501;SDS011;3792;47.740;7.606;2024-01-10T13:10:44;47.67;;;28.17;;
7501;SDS011;3792;47.740;7.606;2024-01-10T13:13:14;48.37;;;28.43;;
7501;SDS011;3792;47.740;7.606;2024-01-10T13:15:43;46.30;;;26.90;;
7501;SDS011;3792;47.740;7.606;2024-01-10T13:18:10;50.87;;;27.13;;
7501;SDS011;3792;47.740;7.606;2024-01-10T13:20:38;50.90;;;27.83;;
7501;SDS011;3792;47.740;7.606;2024-01-10T13:23:05;49.13;;;28.30;;
7501;SDS011;3792;47.740;7.606;2024-01-10T13:25:32;57.57;;;30.07;;
7501;SDS011;3792;47.740;7.606;2024-01-10T13:28:00;51.83;;;29.67;;
7501;SDS011;3792;47.740;7.606;2024-01-10T13:30:28;56.13;;;30.00;;
7501;SDS011;3792;47.740;7.606;2024-01-10T13:32:56;52.87;;;29.50;;
7501;SDS011;3792;47.740;7.606;2024-01-10T13:35:23;45.47;;;27.00;;
7501;SDS011;3792;47.740;7.606;2024-01-10T13:37:50;43.67;;;26.57;;
7501;SDS011;3792;47.740;7.606;2024-01-10T13:40:17;46.63;;;27.63;;
7501;SDS011;3792;47.740;7.606;2024-01-10T13:42:49;41.67;;;27.13;;
7501;SDS011;3792;47.740;7.606;2024-01-10T13:45:16;40.27;;;25.77;;
7501;SDS011;3792;47.740;7.606;2024-01-10T13:47:44;44.20;;;27.47;;
7501;SDS011;3792;47.740;7.606;2024-01-10T13:50:12;41.83;;;26.90;;
7501;SDS011;3792;47.740;7.606;2024-01-10T13:52:39;42.57;;;26.17;;
7501;SDS011;3792;47.740;7.606;2024-01-10T13:55:07;39.43;;;26.27;;
7501;SDS011;3792;47.740;7.606;2024-01-10T13:57:34;40.23;;;26.57;;
7501;SDS011;3792;47.740;7.606;2024-01-10T14:00:02;37.37;;;25.63;;
7501;SDS011;3792;47.740;7.606;2024-01-10T14:02:32;43.63;;;26.57;;
7501;SDS011;3792;47.740;7.606;2024-01-10T14:05:02;39.67;;;25.97;;
7501;SDS011;3792;47.740;7.606;2024-01-10T14:07:31;42.60;;;27.10;;
7501;SDS011;3792;47.740;7.606;2024-01-10T14:09:59;41.60;;;28.10;;
7501;SDS011;3792;47.740;7.606;2024-01-10T14:12:26;42.53;;;28.30;;
7501;SDS011;3792;47.740;7.606;2024-01-10T14:14:54;42.10;;;27.10;;
7501;SDS011;3792;47.740;7.606;2024-01-10T14:17:21;40.13;;;28.37;;
7501;SDS011;3792;47.740;7.606;2024-01-10T14:19:50;40.33;;;26.70;;
7501;SDS011;3792;47.740;7.606;2024-01-10T14:22:19;39.50;;;27.50;;
7501;SDS011;3792;47.740;7.606;2024-01-10T14:24:46;38.73;;;25.73;;
7501;SDS011;3792;47.740;7.606;2024-01-10T14:27:13;41.23;;;27.47;;
7501;SDS011;3792;47.740;7.606;2024-01-10T14:29:40;37.70;;;24.63;;
7501;SDS011;3792;47.740;7.606;2024-01-10T14:32:07;34.30;;;23.00;;
7501;SDS011;3792;47.740;7.606;2024-01-10T14:34:36;35.63;;;25.00;;
7501;SDS011;3792;47.740;7.606;2024-01-10T14:37:05;39.80;;;25.77;;
7501;SDS011;3792;47.740;7.606;2024-01-10T14:39:34;37.47;;;26.10;;
7501;SDS011;3792;47.740;7.606;2024-01-10T14:42:04;40.63;;;26.10;;
7501;SDS011;3792;47.740;7.606;2024-01-10T14:44:32;39.47;;;25.67;;
7501;SDS011;3792;47.740;7.606;2024-01-10T14:47:00;45.50;;;27.47;;
7501;SDS011;3792;47.740;7.606;2024-01-10T14:49:28;43.90;;;28.60;;
7501;SDS011;3792;47.740;7.606;2024-01-10T14:51:55;46.70;;;29.53;;
7501;SDS011;3792;47.740;7.606;2024-01-10T14:54:22;46.20;;;30.07;;
7501;SDS011;3792;47.740;7.606;2024-01-10T14:56:51;43.73;;;28.40;;
7501;SDS011;3792;47.740;7.606;2024-01-10T14:59:18;47.10;;;29.13;;